createdAt,value
2018-12-19T01:58:45.357Z,91.00
2018-12-19T02:01:24.805Z,91.00
2018-12-19T02:04:06.794Z,91.10
2018-12-19T02:06:51.583Z,91.00
2018-12-19T02:09:35.603Z,91.00
2018-12-19T02:12:20.191Z,91.40
2018-12-19T02:15:06.002Z,91.00
2018-12-19T02:17:49.657Z,91.00
2018-12-19T02:23:14.701Z,91.00
2018-12-19T02:26:02.818Z,91.00
2018-12-19T02:28:49.180Z,91.00
2018-12-19T02:31:32.414Z,91.40
2018-12-19T02:34:12.115Z,91.00
2018-12-19T02:36:54.188Z,91.00
2018-12-19T02:42:22.168Z,91.00
2018-12-19T02:45:05.558Z,90.90
2018-12-19T02:53:16.750Z,90.90
2018-12-19T02:55:56.075Z,91.00
2018-12-19T02:58:36.090Z,91.00
2018-12-19T03:04:06.741Z,91.00
2018-12-19T03:06:46.167Z,91.00
2018-12-19T03:09:26.242Z,91.00
2018-12-19T03:12:05.871Z,91.10
2018-12-19T03:14:45.764Z,91.10
2018-12-19T03:17:25.330Z,91.00
2018-12-19T03:20:08.489Z,91.00
2018-12-19T03:22:48.678Z,91.00
2018-12-19T03:25:28.808Z,91.00
2018-12-19T03:28:08.315Z,91.00
2018-12-19T03:30:48.049Z,91.00
2018-12-19T03:33:27.493Z,91.00
2018-12-19T03:36:07.273Z,91.00
2018-12-19T03:38:46.834Z,91.00
2018-12-19T03:41:26.621Z,91.00
2018-12-19T03:44:06.387Z,91.00
2018-12-19T03:46:47.158Z,91.10
2018-12-19T04:17:53.045Z,90.70
2018-12-19T04:20:32.103Z,91.40
2018-12-19T04:23:11.209Z,91.00
2018-12-19T04:25:49.857Z,91.00
2018-12-19T04:28:29.333Z,91.10
2018-12-19T04:31:08.173Z,91.00
2018-12-19T04:33:47.805Z,91.00
2018-12-19T04:36:26.637Z,91.00
2018-12-19T04:39:07.967Z,91.00
2018-12-19T04:41:46.781Z,91.00
2018-12-19T04:47:20.763Z,90.90
2018-12-19T04:50:00.211Z,90.90
2018-12-19T04:52:40.160Z,91.00
2018-12-19T04:55:19.951Z,90.90
2018-12-19T05:09:23.797Z,90.40
2018-12-19T05:12:03.789Z,90.70
2018-12-19T05:14:43.738Z,90.70
2018-12-19T05:17:23.466Z,90.80
2018-12-19T05:20:03.328Z,90.80
2018-12-19T05:22:42.846Z,90.60
2018-12-19T05:25:22.750Z,90.80
2018-12-19T05:28:02.302Z,90.80
2018-12-19T05:30:42.212Z,90.80
2018-12-19T05:33:21.758Z,90.80
2018-12-19T05:36:02.599Z,90.70
2018-12-19T05:38:42.074Z,90.90
2018-12-19T05:41:21.885Z,90.70
2018-12-19T05:44:01.374Z,90.60
2018-12-19T05:46:40.845Z,91.00
2018-12-19T05:49:20.463Z,90.60
2018-12-19T05:52:00.455Z,90.90
2018-12-19T05:54:40.297Z,90.60
2018-12-19T05:57:20.351Z,90.60
2018-12-19T05:59:59.911Z,90.60
2018-12-19T06:02:39.995Z,90.60
2018-12-19T06:05:19.617Z,90.60
2018-12-19T06:07:59.336Z,90.50
2018-12-19T06:10:38.859Z,90.50
2018-12-19T06:41:26.770Z,90.20
2018-12-19T06:44:06.362Z,90.50
2018-12-19T06:46:46.318Z,90.50
2018-12-19T06:49:25.907Z,90.50
2018-12-19T06:52:06.084Z,90.50
2018-12-19T06:54:45.690Z,90.50
2018-12-19T06:57:25.833Z,90.50
2018-12-19T07:00:05.993Z,90.50
2018-12-19T07:02:46.121Z,90.50
2018-12-19T07:05:25.703Z,90.50
2018-12-19T07:08:05.629Z,90.40
2018-12-19T07:10:45.219Z,90.40
2018-12-19T07:13:25.293Z,90.50
2018-12-19T07:16:05.290Z,90.50
2018-12-19T07:18:45.108Z,90.50
2018-12-19T07:21:25.908Z,90.50
2018-12-19T07:24:08.093Z,90.50
2018-12-19T07:26:48.714Z,90.40
2018-12-19T07:32:16.348Z,90.50
2018-12-19T07:34:56.569Z,90.50
2018-12-19T07:37:36.292Z,90.50
2018-12-19T07:40:15.951Z,90.50
2018-12-19T07:42:55.751Z,90.50
2018-12-19T07:45:36.965Z,90.40
2018-12-19T07:48:16.478Z,90.40
2018-12-19T07:50:57.837Z,90.50
2018-12-19T07:53:39.729Z,90.50
2018-12-19T07:56:21.885Z,90.40
2018-12-19T07:59:01.626Z,90.50
2018-12-19T08:02:45.147Z,90.50
2018-12-19T08:05:26.253Z,90.50
2018-12-19T08:08:06.454Z,90.50
2018-12-19T08:10:51.938Z,90.50
2018-12-19T08:13:27.959Z,90.40
2018-12-19T08:16:07.506Z,90.40
2018-12-19T08:18:47.498Z,90.40
2018-12-19T08:21:27.087Z,90.40
2018-12-19T08:24:07.064Z,90.50
2018-12-19T08:26:46.669Z,90.40
2018-12-19T08:29:26.367Z,90.40
2018-12-19T08:32:06.137Z,90.50
2018-12-19T08:34:50.042Z,90.80
2018-12-19T08:37:30.692Z,90.40
2018-12-19T08:40:12.126Z,90.40
2018-12-19T08:42:51.695Z,90.50
2018-12-19T08:45:33.754Z,90.30
2018-12-19T08:48:14.716Z,90.30
2018-12-19T08:50:54.960Z,90.20
2018-12-19T08:53:34.772Z,90.30
2018-12-19T08:56:15.139Z,90.30
2018-12-19T08:59:04.604Z,90.30
2018-12-19T09:01:44.987Z,90.30
2018-12-19T09:04:25.952Z,90.30
2018-12-19T09:07:06.440Z,90.30
2018-12-19T09:09:47.282Z,90.30
2018-12-19T09:12:27.744Z,90.30
2018-12-19T09:15:07.810Z,90.30
2018-12-19T09:17:47.874Z,90.30
2018-12-19T09:20:27.636Z,90.30
2018-12-19T09:23:37.765Z,90.30
2018-12-19T09:26:17.253Z,90.30
2018-12-19T09:28:57.077Z,90.30
2018-12-19T09:31:36.987Z,90.30
2018-12-19T09:34:16.621Z,90.40
2018-12-19T09:36:58.113Z,90.40
2018-12-19T09:39:37.385Z,90.30
2018-12-19T09:42:18.613Z,90.30
2018-12-19T09:44:59.211Z,90.30
2018-12-19T09:47:39.079Z,90.30
2018-12-19T09:50:19.003Z,90.30
2018-12-19T09:53:00.742Z,90.40
2018-12-19T09:55:42.750Z,90.30
2018-12-19T09:58:22.571Z,90.30
2018-12-19T10:01:05.279Z,90.30
2018-12-19T10:03:45.091Z,90.40
2018-12-19T10:06:24.946Z,90.30
2018-12-19T10:09:04.486Z,90.30
2018-12-19T10:11:48.994Z,90.30
2018-12-19T10:14:29.061Z,90.30
2018-12-19T10:17:11.625Z,90.40
2018-12-19T10:19:51.168Z,90.40
2018-12-19T10:22:37.973Z,90.40
2018-12-19T10:25:18.336Z,90.30
2018-12-19T10:27:59.779Z,90.40
2018-12-19T10:30:54.113Z,90.50
2018-12-19T10:33:36.411Z,90.40
2018-12-19T10:36:16.286Z,90.40
2018-12-19T10:38:57.259Z,90.40
2018-12-19T10:41:36.836Z,90.40
2018-12-19T10:44:19.847Z,90.40
2018-12-19T10:47:00.907Z,90.50
2018-12-19T10:49:42.314Z,90.40
2018-12-19T10:55:07.030Z,90.50
2018-12-19T10:57:52.535Z,90.50
2018-12-19T11:00:38.237Z,90.50
2018-12-19T11:03:17.772Z,90.50
2018-12-19T11:05:57.742Z,90.50
2018-12-19T11:08:37.522Z,90.50
2018-12-19T11:11:16.953Z,90.50
2018-12-19T11:13:56.216Z,90.50
2018-12-19T11:16:36.119Z,90.90
2018-12-19T11:19:15.818Z,90.50
2018-12-19T11:21:56.578Z,90.60
2018-12-19T11:24:36.797Z,90.50
2018-12-19T11:27:18.763Z,90.50
2018-12-19T11:30:00.266Z,90.50
2018-12-19T11:32:40.791Z,90.60
2018-12-19T11:35:20.725Z,90.60
2018-12-19T11:38:01.885Z,90.60
2018-12-19T11:40:41.386Z,90.60
2018-12-19T11:43:21.553Z,90.70
2018-12-19T11:46:00.984Z,90.60
2018-12-19T11:48:40.675Z,90.60
2018-12-19T11:51:20.173Z,90.60
2018-12-19T11:53:59.990Z,90.70
2018-12-19T11:56:39.482Z,90.70
2018-12-19T11:59:19.326Z,90.70
2018-12-19T13:06:56.537Z,90.70
2018-12-19T13:09:37.186Z,91.00
2018-12-19T13:12:16.932Z,91.10
2018-12-19T13:14:56.946Z,91.00
2018-12-19T13:17:37.425Z,91.00
2018-12-19T13:20:17.239Z,91.00
2018-12-19T13:22:57.331Z,91.00
2018-12-19T13:25:37.181Z,91.00
2018-12-19T13:28:17.650Z,91.00
2018-12-19T13:30:57.581Z,91.10
2018-12-19T13:33:37.824Z,91.10
2018-12-19T13:36:18.273Z,91.00
2018-12-19T13:38:58.492Z,91.10
2018-12-19T13:41:38.316Z,91.10
2018-12-19T13:44:17.979Z,91.10
2018-12-19T13:46:57.580Z,91.40
2018-12-19T13:49:37.743Z,91.10
2018-12-19T13:52:17.762Z,91.10
2018-12-19T13:54:57.422Z,91.10
2018-12-19T13:57:37.087Z,91.10
2018-12-19T14:00:16.784Z,91.10
2018-12-19T14:02:56.528Z,91.10
2018-12-19T14:05:36.267Z,91.10
2018-12-19T14:08:17.271Z,91.10
2018-12-19T14:10:58.459Z,91.10
2018-12-19T14:13:38.111Z,91.10
2018-12-19T14:16:18.299Z,91.10
2018-12-19T14:18:58.179Z,91.10
2018-12-19T14:21:38.188Z,91.10
2018-12-19T14:24:17.840Z,91.10
2018-12-19T14:26:57.580Z,90.80
2018-12-19T14:29:37.590Z,91.00
2018-12-19T14:32:18.527Z,91.10
2018-12-19T14:34:58.503Z,91.00
2018-12-19T14:37:38.233Z,91.00
2018-12-19T14:48:28.187Z,91.00
2018-12-19T14:53:54.703Z,90.90
2018-12-19T14:56:34.496Z,90.80
2018-12-19T14:59:13.858Z,90.70
2018-12-19T15:37:08.606Z,90.40
2018-12-19T15:39:53.122Z,90.40
2018-12-19T15:51:05.848Z,90.40
2018-12-19T15:53:46.166Z,90.40
2018-12-19T18:39:30.277Z,87.10
2018-12-19T18:48:07.270Z,87.00
2018-12-19T21:36:47.343Z,84.00
